Pagina principală
METAR-TAF:

METAR-TAF

Aeroporturi :

Rexburg-Madison County Airport

Rexburg, Idaho, Statele Unite ale Americii

Latitudine: 43-49-54N, longitudine: 111-48-22W, elevație: 1481 m

Observații meteo curente

Raportul a fost făcut în urmă cu 1 oră și 4 de minute, la 14:53 UTC
Vânt 9 kt de la Sud/Sud-vest
Temperatură 19°C
Umiditate 49%
Presiune 1017 hPa
Vizibilitate: 16.1 km
Cer senin

METAR: KRXE 121453Z AUTO 21009KT 10SM CLR 19/08 A3003 RMK AO2 SLP122 T01940078 53004

Ora: 09:57 (15:57 UTC)


TAF: lipsă

Observații și prognoze meteo pentru peste 4.000 de aeroporturi (rapoarte METAR și TAF).

Stațiile disponibile sunt reprezentate pe hartă prin puncte galbene și roșii.

Țineți indicatorul mouse-ului pe punctul dorit pentru a vedea denumirea stației.

Apoi, faceți clic pentru a vedea observațiile și prognozele meteorologice.

Pentru a schimba harta: Pentru mărire, faceți clic pe butoanele verzi cu cruce neagră; pentru micșorare, pe butonul verde cu o liniuță; pentru hărți învecinate, pe săgețile verzi.


METAR-TAF: